Time;durP1;ratioP1;P1;durP2;ratioP2;P2;SDS_P1;SDS_P2;PMS_P1;PMS_P2;Temp;Humidity;BMP_temperature;BMP_pressure;BME280_temperature;BME280_humidity;BME280_pressure;Samples;Min_cycle;Max_cycle;Signal;HPM_P1;HPM_P2
2021/12/06 00:02:16;;;;;;;21.33;12.07;;;;;;;0.27;100.00;95789.38;10611560;28;20176;-64
2021/12/06 00:07:19;;;;;;;17.67;10.77;;;;;;;0.25;100.00;95791.25;10616664;28;20208;-64
2021/12/06 00:12:20;;;;;;;31.43;14.63;;;;;;;0.10;100.00;95798.38;10616095;28;20282;-64
2021/12/06 00:17:21;;;;;;;39.17;17.30;;;;;;;0.04;100.00;95801.41;10616484;28;20213;-63
2021/12/06 00:22:23;;;;;;;38.17;18.73;;;;;;;-0.04;100.00;95804.56;10615500;28;20176;-64
2021/12/06 00:27:24;;;;;;;40.70;19.77;;;;;;;-0.07;100.00;95797.88;10615545;28;20214;-64
2021/12/06 00:32:25;;;;;;;43.93;22.07;;;;;;;-0.10;100.00;95803.25;10615548;28;20182;-64
2021/12/06 00:37:33;;;;;;;54.07;21.53;;;;;;;-0.08;100.00;95803.94;10615945;28;20190;-65
2021/12/06 00:42:34;;;;;;;49.33;21.10;;;;;;;-0.10;100.00;95803.25;10597252;28;20170;-64
2021/12/06 00:47:35;;;;;;;42.70;19.87;;;;;;;-0.09;100.00;95810.03;10597660;28;20259;-64
2021/12/06 00:52:35;;;;;;;48.57;21.63;;;;;;;-0.06;100.00;95807.25;10615167;28;20185;-65
2021/12/06 00:57:39;;;;;;;45.03;21.27;;;;;;;0.00;100.00;95818.84;10614055;28;20211;-65
2021/12/06 01:02:39;;;;;;;61.07;22.17;;;;;;;-0.17;100.00;95816.69;10596770;28;20256;-64
2021/12/06 01:07:41;;;;;;;48.03;21.27;;;;;;;-0.07;100.00;95815.06;10596381;28;20197;-64
2021/12/06 01:12:41;;;;;;;51.40;20.80;;;;;;;-0.14;100.00;95824.97;10595801;28;20165;-63
2021/12/06 01:17:41;;;;;;;44.13;21.27;;;;;;;-0.12;100.00;95828.28;10613970;28;20204;-64
2021/12/06 01:22:51;;;;;;;43.00;21.00;;;;;;;-0.08;100.00;95832.25;10595799;28;20162;-65
2021/12/06 01:39:11;;;;;;;44.87;19.73;;;;;;;-0.01;100.00;95845.50;10594965;28;20156;-65
2021/12/06 01:44:15;;;;;;;36.10;17.33;;;;;;;-0.03;100.00;95848.19;10595241;28;20227;-63
2021/12/06 01:49:24;;;;;;;29.90;14.23;;;;;;;-0.09;100.00;95843.50;10594472;28;20279;-65
2021/12/06 01:54:25;;;;;;;33.40;14.07;;;;;;;-0.15;100.00;95845.69;10612427;28;20171;-65
2021/12/06 01:59:26;;;;;;;36.83;15.67;;;;;;;-0.16;100.00;95850.03;10611264;28;20191;-65
2021/12/06 02:04:29;;;;;;;38.57;15.37;;;;;;;-0.21;100.00;95840.06;10593988;28;20403;-65
2021/12/06 02:09:29;;;;;;;48.20;15.13;;;;;;;-0.24;100.00;95849.78;10593260;28;20287;-64
2021/12/06 02:14:49;;;;;;;37.23;13.83;;;;;;;-0.18;100.00;95849.31;10593891;28;20295;-68
2021/12/06 02:19:55;;;;;;;44.13;12.50;;;;;;;-0.14;100.00;95861.03;10592838;28;20186;-65
2021/12/06 02:24:56;;;;;;;27.33;12.03;;;;;;;-0.21;100.00;95854.69;10611078;28;20171;-65
2021/12/06 02:30:01;;;;;;;32.83;12.03;;;;;;;-0.21;100.00;95849.53;10592994;28;20177;-64
2021/12/06 02:35:05;;;;;;;33.80;12.47;;;;;;;-0.23;100.00;95856.53;10590341;28;20167;-64
2021/12/06 02:40:11;;;;;;;30.00;12.10;;;;;;;-0.24;100.00;95853.16;10610108;28;20241;-65
2021/12/06 02:45:13;;;;;;;36.73;12.93;;;;;;;-0.20;100.00;95856.31;10592684;28;20200;-64
2021/12/06 02:50:14;;;;;;;31.60;11.77;;;;;;;-0.14;100.00;95863.59;10592271;28;20166;-64
2021/12/06 03:00:55;;;;;;;58.20;13.37;;;;;;;-0.16;100.00;95872.38;10580820;28;20487;-64
2021/12/06 03:05:56;;;;;;;85.20;13.57;;;;;;;-0.23;100.00;95877.13;10609113;28;20225;-64
2021/12/06 03:10:57;;;;;;;161.60;16.13;;;;;;;-0.35;100.00;95881.44;10609601;28;20173;-66
2021/12/06 03:15:57;;;;;;;69.20;14.47;;;;;;;-0.54;100.00;95889.63;10609060;28;20202;-65
2021/12/06 03:20:59;;;;;;;44.63;13.00;;;;;;;-0.49;100.00;95881.56;10590793;28;20178;-65
2021/12/06 03:25:59;;;;;;;40.40;14.30;;;;;;;-0.55;100.00;95881.09;10591150;28;20197;-64
2021/12/06 03:31:00;;;;;;;102.90;15.53;;;;;;;-0.66;100.00;95893.06;10591360;28;20164;-64
2021/12/06 03:36:05;;;;;;;59.27;15.77;;;;;;;-0.72;100.00;95890.00;10594024;28;20154;-65
2021/12/06 03:41:08;;;;;;;39.57;13.77;;;;;;;-0.66;100.00;95895.63;10605267;28;20411;-64
2021/12/06 03:46:11;;;;;;;57.83;15.27;;;;;;;-0.70;100.00;95894.19;10605070;28;20217;-64
2021/12/06 03:51:14;;;;;;;61.93;14.90;;;;;;;-0.84;100.00;95903.72;10603671;28;20162;-64
2021/12/06 03:56:16;;;;;;;53.40;14.57;;;;;;;-0.81;100.00;95911.22;10603836;28;20166;-64
2021/12/06 04:01:17;;;;;;;47.40;14.83;;;;;;;-0.85;100.00;95911.53;10604090;28;20162;-64
2021/12/06 04:06:19;;;;;;;54.77;15.63;;;;;;;-0.91;100.00;95907.63;10562855;28;20427;-64
2021/12/06 04:11:20;;;;;;;36.63;12.83;;;;;;;-0.83;100.00;95918.19;10573854;28;20177;-65
2021/12/06 04:16:21;;;;;;;32.33;12.37;;;;;;;-0.95;100.00;95925.00;10555996;28;20221;-65
2021/12/06 04:21:23;;;;;;;31.70;12.30;;;;;;;-1.00;100.00;95926.25;10555301;28;20193;-67
2021/12/06 04:26:24;;;;;;;29.23;11.67;;;;;;;-0.95;100.00;95931.88;10573968;28;20209;-64
2021/12/06 04:31:37;;;;;;;28.70;12.13;;;;;;;-1.05;100.00;95936.03;10555963;28;20182;-65
2021/12/06 04:36:41;;;;;;;29.77;11.77;;;;;;;-1.11;100.00;95944.97;10555566;28;20296;-64
2021/12/06 04:41:43;;;;;;;22.20;10.47;;;;;;;-1.23;100.00;95948.38;10555577;28;20197;-66
2021/12/06 04:46:47;;;;;;;25.53;11.30;;;;;;;-1.21;100.00;95959.34;10554425;28;20214;-65
2021/12/06 04:51:53;;;;;;;23.93;10.83;;;;;;;-1.32;100.00;95958.34;10566160;28;20233;-65
2021/12/06 04:57:00;;;;;;;27.43;12.07;;;;;;;-1.35;100.00;95960.28;10566864;28;20159;-63
2021/12/06 05:02:08;;;;;;;23.23;11.47;;;;;;;-1.30;100.00;95963.38;10549963;28;20163;-64
2021/12/06 05:07:16;;;;;;;25.87;12.60;;;;;;;-1.54;100.00;95973.53;10554465;28;20199;-63
2021/12/06 05:12:18;;;;;;;28.40;13.23;;;;;;;-1.50;100.00;95978.34;10554312;28;20193;-64
2021/12/06 05:17:20;;;;;;;32.87;15.37;;;;;;;-1.58;100.00;95993.41;10553217;28;20218;-64
2021/12/06 05:22:24;;;;;;;31.97;15.77;;;;;;;-1.52;100.00;95992.22;10553692;28;20212;-65
2021/12/06 05:27:28;;;;;;;33.00;15.13;;;;;;;-1.51;100.00;96004.94;10553287;28;20202;-65
2021/12/06 05:32:33;;;;;;;36.40;15.40;;;;;;;-1.54;100.00;96005.16;10553024;28;20173;-63
2021/12/06 05:37:37;;;;;;;37.70;15.93;;;;;;;-1.57;100.00;96009.69;10553143;28;20178;-64
2021/12/06 05:42:37;;;;;;;30.87;15.77;;;;;;;-1.55;100.00;96010.38;10570859;28;20231;-64
2021/12/06 05:47:38;;;;;;;28.10;13.77;;;;;;;-1.56;100.00;96014.72;10569918;28;20261;-63
2021/12/06 05:52:38;;;;;;;29.93;14.70;;;;;;;-1.53;100.00;96039.34;10570433;28;20212;-64
2021/12/06 05:57:39;;;;;;;28.87;15.23;;;;;;;-1.56;100.00;96037.81;10570167;28;20171;-64
2021/12/06 06:02:40;;;;;;;33.60;15.20;;;;;;;-1.57;100.00;96046.44;10569113;28;20177;-64
2021/12/06 06:07:40;;;;;;;31.00;15.63;;;;;;;-1.71;100.00;96049.09;10569678;28;20432;-63
2021/12/06 06:12:41;;;;;;;35.13;15.87;;;;;;;-1.71;100.00;96052.47;10569522;28;20167;-62
2021/12/06 06:17:43;;;;;;;32.07;16.50;;;;;;;-1.64;100.00;96058.03;10568690;28;20206;-62
2021/12/06 06:22:44;;;;;;;31.00;15.10;;;;;;;-1.68;100.00;96059.97;10590180;28;20178;-62
2021/12/06 06:27:45;;;;;;;37.00;18.13;;;;;;;-1.67;100.00;96066.75;10610863;28;20360;-62
2021/12/06 06:32:46;;;;;;;33.30;16.83;;;;;;;-1.60;100.00;96077.47;10610829;28;20185;-63
2021/12/06 06:37:47;;;;;;;31.60;15.30;;;;;;;-1.58;100.00;96077.38;10610647;28;20295;-62
2021/12/06 06:42:47;;;;;;;29.63;15.93;;;;;;;-1.55;100.00;96083.13;10610780;28;20174;-61
2021/12/06 06:47:48;;;;;;;28.30;15.60;;;;;;;-1.55;100.00;96085.69;10609717;28;20200;-61
2021/12/06 06:52:49;;;;;;;29.33;15.57;;;;;;;-1.64;100.00;96093.97;10610526;28;20166;-65
2021/12/06 06:57:51;;;;;;;27.37;15.13;;;;;;;-1.72;100.00;96098.78;10609369;28;20200;-63
2021/12/06 07:02:51;;;;;;;25.60;14.63;;;;;;;-1.63;100.00;96098.19;10610196;28;20170;-64
2021/12/06 07:07:52;;;;;;;28.33;14.73;;;;;;;-1.71;100.00;96097.88;10609486;28;20264;-62
2021/12/06 07:12:53;;;;;;;27.20;14.27;;;;;;;-1.65;100.00;96102.63;10607895;28;20173;-64
2021/12/06 07:17:55;;;;;;;26.37;14.90;;;;;;;-1.69;100.00;96122.50;10608952;28;20312;-62
2021/12/06 07:22:55;;;;;;;33.00;17.03;;;;;;;-1.78;100.00;96125.66;10607627;28;20174;-61
2021/12/06 07:27:57;;;;;;;28.10;15.73;;;;;;;-1.63;100.00;96134.16;10608677;28;20224;-62
2021/12/06 07:32:58;;;;;;;30.87;16.30;;;;;;;-1.61;100.00;96140.00;10608861;28;20193;-62
2021/12/06 07:38:00;;;;;;;31.57;16.83;;;;;;;-1.67;100.00;96141.22;10608711;28;20162;-60
2021/12/06 07:43:01;;;;;;;40.27;19.43;;;;;;;-1.81;100.00;96133.53;10606335;28;20233;-62
2021/12/06 07:48:02;;;;;;;40.53;20.53;;;;;;;-1.83;100.00;96143.91;10608927;28;20423;-64
2021/12/06 07:53:02;;;;;;;35.40;18.80;;;;;;;-1.79;100.00;96147.13;10600642;28;20192;-60
2021/12/06 07:58:05;;;;;;;33.63;18.43;;;;;;;-1.70;100.00;96154.25;10605695;28;20178;-63
2021/12/06 08:03:08;;;;;;;32.33;17.67;;;;;;;-1.67;100.00;96154.06;10637607;28;20192;-64
2021/12/06 08:08:16;;;;;;;32.90;17.43;;;;;;;-1.67;100.00;96159.22;10605531;28;20250;-64
2021/12/06 08:13:22;;;;;;;31.90;17.87;;;;;;;-1.54;100.00;96164.41;10597144;28;20226;-64
2021/12/06 08:18:22;;;;;;;30.37;18.23;;;;;;;-1.62;100.00;96176.91;10605926;28;20269;-65
2021/12/06 08:23:24;;;;;;;32.93;17.03;;;;;;;-1.58;100.00;96175.78;10608755;28;20181;-63
2021/12/06 08:28:25;;;;;;;32.50;17.40;;;;;;;-1.48;100.00;96182.00;10612979;28;20209;-62
2021/12/06 08:33:25;;;;;;;28.70;16.13;;;;;;;-1.60;100.00;96182.75;10613345;28;20341;-62
2021/12/06 08:38:29;;;;;;;27.83;15.70;;;;;;;-1.61;100.00;96186.22;10612239;28;20279;-62
2021/12/06 08:43:30;;;;;;;25.60;14.93;;;;;;;-1.49;100.00;96194.94;10612685;28;20181;-64
2021/12/06 08:48:33;;;;;;;28.47;16.03;;;;;;;-1.64;100.00;96201.81;10612237;28;20201;-63
2021/12/06 08:53:33;;;;;;;28.40;15.97;;;;;;;-1.51;100.00;96205.31;10644934;27;20177;-63
2021/12/06 08:58:34;;;;;;;27.57;15.63;;;;;;;-1.70;100.00;96208.19;10654205;27;20387;-64
2021/12/06 09:03:35;;;;;;;24.50;14.47;;;;;;;-1.52;100.00;96208.78;10647127;27;20181;-62
2021/12/06 09:08:36;;;;;;;27.43;15.60;;;;;;;-1.62;100.00;96218.81;10619485;27;20204;-63
2021/12/06 09:13:37;;;;;;;26.67;15.53;;;;;;;-1.59;100.00;96217.81;10611149;28;20162;-64
2021/12/06 09:18:40;;;;;;;25.47;14.77;;;;;;;-1.62;100.00;96229.06;10612170;28;20216;-63
2021/12/06 09:23:41;;;;;;;26.23;15.17;;;;;;;-1.66;100.00;96229.34;10610672;28;20167;-64
2021/12/06 09:28:41;;;;;;;25.63;14.20;;;;;;;-1.58;100.00;96239.97;10611271;28;20423;-63
2021/12/06 09:33:42;;;;;;;30.27;15.40;;;;;;;-1.73;100.00;96244.31;10610275;28;20177;-62
2021/12/06 09:38:44;;;;;;;32.77;17.40;;;;;;;-1.80;100.00;96246.41;10611153;28;20389;-62
2021/12/06 09:43:44;;;;;;;32.30;18.13;;;;;;;-1.70;100.00;96243.28;10608951;28;20186;-63
2021/12/06 09:48:46;;;;;;;37.47;20.37;;;;;;;-1.70;100.00;96251.00;10610246;28;20209;-61
2021/12/06 09:53:47;;;;;;;38.53;20.33;;;;;;;-1.67;100.00;96246.53;10610815;28;20181;-64
2021/12/06 09:58:47;;;;;;;41.37;21.00;;;;;;;-1.62;100.00;96248.81;10609563;28;20372;-64
2021/12/06 10:03:49;;;;;;;43.50;23.90;;;;;;;-1.51;100.00;96254.09;10609660;28;20380;-64
2021/12/06 10:08:53;;;;;;;36.83;20.80;;;;;;;-1.50;100.00;96249.78;10607158;28;20198;-65
2021/12/06 10:13:55;;;;;;;32.97;18.83;;;;;;;-1.41;100.00;96244.09;10607945;28;20430;-65
2021/12/06 10:18:56;;;;;;;29.07;17.07;;;;;;;-1.40;100.00;96250.88;10608659;28;20300;-63
2021/12/06 10:23:56;;;;;;;32.53;16.23;;;;;;;-1.36;100.00;96251.50;10608534;28;20173;-66
2021/12/06 10:28:59;;;;;;;27.87;15.97;;;;;;;-1.29;100.00;96255.34;10608364;28;20204;-65
2021/12/06 10:34:00;;;;;;;30.57;17.33;;;;;;;-1.35;100.00;96248.03;10608626;28;20170;-62
2021/12/06 10:39:06;;;;;;;36.10;18.80;;;;;;;-1.42;100.00;96257.03;10608855;28;20170;-64
2021/12/06 10:44:10;;;;;;;31.47;17.43;;;;;;;-1.36;100.00;96251.50;10607862;28;20176;-64
2021/12/06 10:49:17;;;;;;;31.73;17.13;;;;;;;-1.37;100.00;96249.88;10606906;28;20198;-65
2021/12/06 10:54:28;;;;;;;27.27;16.27;;;;;;;-1.30;100.00;96240.88;10607628;28;20454;-65
2021/12/06 10:59:31;;;;;;;36.47;18.23;;;;;;;-1.31;100.00;96250.31;10607829;28;20391;-66
2021/12/06 11:04:31;;;;;;;56.70;28.67;;;;;;;-1.21;100.00;96255.72;10607083;28;20168;-67
2021/12/06 11:09:35;;;;;;;36.43;18.43;;;;;;;-1.20;100.00;96252.22;10607736;28;20313;-66
2021/12/06 11:14:41;;;;;;;32.60;18.40;;;;;;;-1.06;100.00;96259.06;10607302;28;20229;-64
2021/12/06 11:19:42;;;;;;;40.50;20.70;;;;;;;-1.12;100.00;96254.31;10605963;28;20174;-66
2021/12/06 11:24:46;;;;;;;39.60;19.30;;;;;;;-1.19;100.00;96263.34;10606180;28;20162;-67
2021/12/06 11:29:57;;;;;;;39.27;20.93;;;;;;;-1.31;100.00;96255.44;10607481;28;20203;-65
2021/12/06 11:35:19;;;;;;;34.97;19.13;;;;;;;-1.43;100.00;96251.06;10606322;28;20230;-66
2021/12/06 11:40:30;;;;;;;39.57;20.90;;;;;;;-1.39;100.00;96252.53;10606444;28;20166;-65
2021/12/06 11:45:49;;;;;;;47.27;22.90;;;;;;;-1.27;100.00;96253.53;10607248;28;20260;-65
2021/12/06 11:51:00;;;;;;;40.07;19.47;;;;;;;-1.28;100.00;96259.59;10605120;28;20249;-67
2021/12/06 11:56:16;;;;;;;39.50;20.03;;;;;;;-1.41;100.00;96258.69;10606589;28;20366;-66
2021/12/06 12:01:25;;;;;;;34.20;19.40;;;;;;;-1.19;100.00;96266.72;10615425;28;20225;-65
2021/12/06 12:06:28;;;;;;;33.30;17.07;;;;;;;-1.16;100.00;96263.97;10614237;28;20261;-66
2021/12/06 12:11:28;;;;;;;36.70;18.07;;;;;;;-1.23;100.00;96270.41;10612031;28;20174;-65
2021/12/06 12:16:28;;;;;;;35.80;18.37;;;;;;;-1.19;100.00;96271.03;10611367;28;20237;-66
2021/12/06 12:21:29;;;;;;;38.20;19.30;;;;;;;-1.23;100.00;96270.41;10612989;28;20174;-65
2021/12/06 12:26:29;;;;;;;35.07;18.00;;;;;;;-1.36;100.00;96269.50;10613612;28;20212;-67
2021/12/06 12:31:30;;;;;;;40.70;19.93;;;;;;;-1.45;100.00;96266.56;10613187;28;20400;-65
2021/12/06 12:36:34;;;;;;;45.43;22.50;;;;;;;-1.54;100.00;96263.75;10614437;28;20399;-65
2021/12/06 12:41:37;;;;;;;43.33;22.40;;;;;;;-1.70;100.00;96258.69;10594329;28;20273;-68
2021/12/06 12:46:40;;;;;;;38.33;20.73;;;;;;;-1.73;100.00;96264.00;10570557;28;20268;-65
2021/12/06 12:51:48;;;;;;;40.87;21.40;;;;;;;-1.74;100.00;96264.97;10573840;28;20411;-66
2021/12/06 12:56:53;;;;;;;38.67;18.87;;;;;;;-1.63;100.00;96260.81;10612406;28;20166;-64
2021/12/06 13:02:21;;;;;;;41.43;20.73;;;;;;;-1.56;100.00;96245.03;10612283;28;20227;-66
2021/12/06 13:07:22;;;;;;;39.30;20.67;;;;;;;-1.47;100.00;96250.44;10612214;28;20254;-68
2021/12/06 13:12:23;;;;;;;38.47;21.87;;;;;;;-1.49;100.00;96261.72;10611310;28;20384;-66
2021/12/06 13:17:33;;;;;;;43.07;21.77;;;;;;;-1.59;100.00;96266.59;10610605;28;20264;-65
2021/12/06 13:22:45;;;;;;;43.97;22.73;;;;;;;-1.55;100.00;96268.03;10611210;28;20343;-68
2021/12/06 13:27:59;;;;;;;40.40;21.90;;;;;;;-1.69;100.00;96273.19;10610282;28;20198;-65
2021/12/06 13:33:05;;;;;;;44.03;22.80;;;;;;;-1.71;100.00;96262.19;10610799;28;20189;-65
2021/12/06 13:38:28;;;;;;;46.03;22.97;;;;;;;-1.86;100.00;96263.94;10610790;28;20214;-65
2021/12/06 13:43:33;;;;;;;53.03;26.30;;;;;;;-1.75;100.00;96276.13;10609210;28;20214;-66
2021/12/06 13:48:40;;;;;;;53.47;26.83;;;;;;;-2.05;100.00;96274.44;10607834;28;20194;-64
2021/12/06 13:53:52;;;;;;;49.60;26.10;;;;;;;-1.98;100.00;96275.75;10605546;28;20189;-65
2021/12/06 13:58:53;;;;;;;58.87;27.27;;;;;;;-1.93;100.00;96275.47;10607635;28;20162;-64
2021/12/06 14:03:53;;;;;;;59.57;28.23;;;;;;;-1.94;100.00;96272.09;10610071;28;20170;-64
2021/12/06 14:08:55;;;;;;;56.93;26.80;;;;;;;-1.97;100.00;96285.09;10609342;28;20213;-65
2021/12/06 14:13:57;;;;;;;58.17;27.67;;;;;;;-2.07;100.00;96284.78;10591630;28;20158;-65
2021/12/06 14:18:57;;;;;;;56.70;26.53;;;;;;;-2.17;100.00;96289.66;10606163;28;20229;-65
2021/12/06 14:23:58;;;;;;;55.67;25.33;;;;;;;-2.10;100.00;96286.72;10607788;28;20174;-65
2021/12/06 14:28:59;;;;;;;45.47;23.30;;;;;;;-2.14;100.00;96283.53;10607678;28;20198;-64
2021/12/06 14:34:03;;;;;;;46.30;22.70;;;;;;;-2.20;100.00;96294.97;10608637;28;20174;-65
2021/12/06 14:39:13;;;;;;;44.27;21.83;;;;;;;-2.12;100.00;96289.38;10608770;28;20241;-64
2021/12/06 14:44:38;;;;;;;48.00;22.47;;;;;;;-2.08;100.00;96287.44;10608107;28;20200;-66
2021/12/06 14:49:45;;;;;;;42.97;21.07;;;;;;;-2.15;100.00;96294.69;10608286;28;20258;-65
2021/12/06 14:54:55;;;;;;;41.30;20.83;;;;;;;-2.13;100.00;96299.75;10593832;28;20357;-65
2021/12/06 14:59:56;;;;;;;41.00;20.83;;;;;;;-2.09;100.00;96301.22;10569179;28;20185;-64
2021/12/06 15:05:02;;;;;;;40.70;19.00;;;;;;;-2.11;100.00;96308.16;10602019;28;20198;-65
2021/12/06 15:10:03;;;;;;;46.37;22.63;;;;;;;-2.19;100.00;96304.31;10603456;28;20371;-64
2021/12/06 15:15:04;;;;;;;45.60;20.87;;;;;;;-2.10;100.00;96304.69;10602456;28;20205;-64
2021/12/06 15:20:05;;;;;;;41.23;21.13;;;;;;;-2.02;100.00;96307.63;10603331;28;20214;-68
2021/12/06 15:25:06;;;;;;;43.17;21.30;;;;;;;-2.03;100.00;96309.38;10602673;28;20351;-67
2021/12/06 15:30:10;;;;;;;47.10;22.73;;;;;;;-2.04;100.00;96312.03;10584802;28;20224;-67
2021/12/06 15:35:11;;;;;;;48.10;22.83;;;;;;;-2.00;100.00;96305.81;10602294;28;20178;-67
2021/12/06 15:40:12;;;;;;;50.63;23.80;;;;;;;-2.09;100.00;96304.59;10602727;28;20215;-65
2021/12/06 15:45:13;;;;;;;42.60;21.03;;;;;;;-2.15;100.00;96316.03;10602088;28;20181;-68
2021/12/06 15:50:18;;;;;;;46.10;21.10;;;;;;;-2.06;100.00;96326.72;10602453;28;20346;-68
2021/12/06 15:55:23;;;;;;;49.77;23.13;;;;;;;-2.17;100.00;96317.06;10601388;28;20177;-68
2021/12/06 16:00:27;;;;;;;43.33;21.37;;;;;;;-2.07;100.00;96325.03;10584299;28;20431;-67
2021/12/06 16:05:31;;;;;;;46.90;20.70;;;;;;;-2.10;100.00;96325.22;10601181;28;20184;-65
2021/12/06 16:10:33;;;;;;;40.27;19.83;;;;;;;-2.18;100.00;96325.66;10601587;28;20182;-67
2021/12/06 16:15:34;;;;;;;46.67;25.40;;;;;;;-2.21;100.00;96321.53;10601386;28;20225;-67
2021/12/06 16:20:46;;;;;;;48.03;21.87;;;;;;;-2.22;100.00;96329.31;10600904;28;20502;-68
2021/12/06 16:25:57;;;;;;;44.33;21.20;;;;;;;-2.21;100.00;96318.94;10595220;28;20440;-65
2021/12/06 16:31:00;;;;;;;42.33;20.77;;;;;;;-2.26;100.00;96320.97;10562577;28;20187;-67
2021/12/06 16:36:20;;;;;;;40.77;20.80;;;;;;;-2.21;100.00;96321.53;10578033;28;20190;-66
2021/12/06 16:41:22;;;;;;;41.27;19.60;;;;;;;-2.19;100.00;96319.72;10603579;28;20170;-67
2021/12/06 16:46:22;;;;;;;38.80;19.63;;;;;;;-2.20;100.00;96323.19;10605989;28;20314;-65
2021/12/06 16:51:41;;;;;;;37.13;19.23;;;;;;;-2.16;100.00;96321.25;10568403;28;20213;-67
2021/12/06 16:56:41;;;;;;;41.67;20.77;;;;;;;-2.15;100.00;96320.34;10571094;28;20177;-64
2021/12/06 17:01:42;;;;;;;37.37;19.37;;;;;;;-2.17;100.00;96324.75;10570991;28;20225;-63
2021/12/06 17:06:42;;;;;;;39.03;18.60;;;;;;;-2.24;100.00;96324.25;10570633;28;20194;-65
2021/12/06 17:11:45;;;;;;;37.17;18.57;;;;;;;-2.25;100.00;96325.19;10601273;28;20166;-62
2021/12/06 17:16:54;;;;;;;36.43;19.40;;;;;;;-2.24;100.00;96318.31;10599528;28;20224;-63
2021/12/06 17:22:06;;;;;;;45.73;21.20;;;;;;;-2.24;100.00;96321.69;10612434;28;20166;-64
2021/12/06 17:27:08;;;;;;;47.90;22.37;;;;;;;-2.33;100.00;96323.06;10611991;28;20201;-62
2021/12/06 17:32:11;;;;;;;43.10;22.73;;;;;;;-2.29;100.00;96323.72;10612851;28;20178;-65
2021/12/06 17:37:12;;;;;;;44.13;21.63;;;;;;;-2.24;100.00;96321.69;10611567;28;20246;-65
2021/12/06 17:42:13;;;;;;;41.33;19.27;;;;;;;-2.21;100.00;96321.53;10610843;28;20279;-65
2021/12/06 17:47:13;;;;;;;39.40;19.47;;;;;;;-2.17;100.00;96314.50;10611905;28;20359;-65
2021/12/06 17:52:13;;;;;;;43.00;21.70;;;;;;;-2.16;100.00;96319.53;10611092;28;20186;-65
2021/12/06 17:57:19;;;;;;;44.93;19.60;;;;;;;-2.12;100.00;96314.22;10610938;28;20161;-62
2021/12/06 18:02:21;;;;;;;46.53;21.43;;;;;;;-2.12;100.00;96319.34;10611187;28;20181;-64
2021/12/06 18:07:21;;;;;;;59.23;25.97;;;;;;;-2.19;100.00;96309.44;10610057;28;20198;-64
2021/12/06 18:12:21;;;;;;;55.20;23.50;;;;;;;-2.07;100.00;96312.22;10609952;28;20381;-62
2021/12/06 18:17:22;;;;;;;44.27;21.50;;;;;;;-2.00;100.00;96308.38;10610552;28;20384;-62
2021/12/06 18:22:22;;;;;;;42.13;20.53;;;;;;;-2.17;100.00;96304.22;10610043;28;20166;-60
2021/12/06 18:27:23;;;;;;;41.90;21.13;;;;;;;-2.11;100.00;96309.00;10609878;28;20206;-61
2021/12/06 18:32:24;;;;;;;40.80;19.93;;;;;;;-1.99;100.00;96307.44;10601522;28;20268;-61
2021/12/06 18:37:26;;;;;;;40.20;19.33;;;;;;;-1.95;100.00;96293.53;10536238;28;20166;-61
2021/12/06 18:42:29;;;;;;;44.20;21.37;;;;;;;-1.86;100.00;96294.75;10540682;28;20236;-63
2021/12/06 18:47:33;;;;;;;40.80;20.40;;;;;;;-1.84;100.00;96293.75;10579591;28;20264;-64
2021/12/06 18:52:33;;;;;;;42.30;20.03;;;;;;;-2.41;100.00;96288.50;10542232;28;20228;-64
2021/12/06 18:57:34;;;;;;;42.60;18.17;;;;;;;-2.03;100.00;96264.94;10544685;28;20194;-64
2021/12/06 19:02:34;;;;;;;35.70;17.63;;;;;;;-1.97;100.00;96262.81;10542309;28;20710;-63
2021/12/06 19:07:35;;;;;;;36.70;18.77;;;;;;;-2.04;100.00;96255.56;10541426;28;20211;-64
2021/12/06 19:12:36;;;;;;;39.67;19.43;;;;;;;-2.48;100.00;96248.72;10536803;28;20182;-62
2021/12/06 19:17:38;;;;;;;43.77;22.20;;;;;;;-2.42;100.00;96236.38;10579408;28;20216;-63
2021/12/06 19:22:39;;;;;;;40.40;17.90;;;;;;;-2.26;100.00;96233.75;10594058;28;20166;-62
2021/12/06 19:27:40;;;;;;;37.83;18.87;;;;;;;-2.22;100.00;96229.25;10596033;28;20193;-62
2021/12/06 19:32:41;;;;;;;41.13;19.70;;;;;;;-2.18;100.00;96221.28;10600567;28;20166;-63
2021/12/06 19:37:42;;;;;;;39.50;18.70;;;;;;;-2.19;100.00;96222.22;10598571;28;20173;-61
2021/12/06 19:42:43;;;;;;;44.80;21.63;;;;;;;-2.36;100.00;96212.09;10599327;28;20189;-63
2021/12/06 19:47:43;;;;;;;41.90;19.40;;;;;;;-2.45;100.00;96220.31;10599888;28;20493;-63
2021/12/06 19:52:45;;;;;;;38.83;20.70;;;;;;;-2.21;100.00;96218.06;10605444;28;20177;-63
2021/12/06 19:57:45;;;;;;;42.80;20.83;;;;;;;-2.25;100.00;96208.91;10607802;28;20162;-64
2021/12/06 20:02:47;;;;;;;21.87;12.70;;;;;;;-2.37;100.00;96211.28;10606767;28;20162;-64
2021/12/06 20:07:47;;;;;;;21.37;9.83;;;;;;;-2.48;100.00;96202.53;10607228;28;20276;-63
2021/12/06 20:12:48;;;;;;;17.93;8.17;;;;;;;-2.41;100.00;96212.34;10607816;28;20173;-64
2021/12/06 20:17:48;;;;;;;17.90;9.20;;;;;;;-2.51;100.00;96208.69;10606537;28;20202;-64
2021/12/06 20:22:49;;;;;;;17.70;9.33;;;;;;;-2.44;100.00;96214.28;10614285;28;20174;-64
2021/12/06 20:27:50;;;;;;;18.17;9.00;;;;;;;-2.24;100.00;96216.50;10614469;28;20201;-64
2021/12/06 20:32:50;;;;;;;20.70;10.10;;;;;;;-2.24;100.00;96213.94;10614566;28;20177;-65
2021/12/06 20:37:51;;;;;;;16.57;9.57;;;;;;;-2.17;100.00;96214.41;10614611;28;20266;-65
2021/12/06 20:42:52;;;;;;;13.60;7.67;;;;;;;-2.40;100.00;96208.88;10613761;28;20457;-63
2021/12/06 20:47:54;;;;;;;16.33;7.30;;;;;;;-2.25;100.00;96194.34;10612254;28;20435;-64
2021/12/06 20:52:56;;;;;;;14.73;7.90;;;;;;;-2.31;100.00;96184.44;10613297;28;20222;-64
2021/12/06 20:57:56;;;;;;;15.53;7.13;;;;;;;-2.56;100.00;96178.19;10613285;28;20170;-64
2021/12/06 21:02:58;;;;;;;13.37;6.97;;;;;;;-2.64;100.00;96175.22;10613047;28;20166;-64
2021/12/06 21:07:58;;;;;;;15.00;7.37;;;;;;;-2.76;100.00;96181.06;10613127;28;20189;-64
2021/12/06 21:13:11;;;;;;;14.20;7.17;;;;;;;-2.94;100.00;96173.53;10613063;28;20169;-63
2021/12/06 21:18:11;;;;;;;14.50;7.37;;;;;;;-3.25;100.00;96170.13;10612404;28;20218;-64
2021/12/06 21:23:11;;;;;;;17.33;8.53;;;;;;;-3.49;100.00;96167.16;10612957;28;20297;-64
2021/12/06 21:28:13;;;;;;;17.00;9.67;;;;;;;-3.73;100.00;96164.19;10612724;28;20230;-64
2021/12/06 21:33:13;;;;;;;17.33;7.80;;;;;;;-3.99;100.00;96158.72;10614423;28;20193;-64
2021/12/06 21:38:14;;;;;;;17.17;8.70;;;;;;;-4.07;100.00;96160.88;10617425;28;20384;-64
2021/12/06 21:43:14;;;;;;;18.90;8.10;;;;;;;-4.14;100.00;96154.41;10611918;28;20524;-64
2021/12/06 21:48:15;;;;;;;17.73;8.67;;;;;;;-4.08;100.00;96141.31;10611699;28;20204;-62
2021/12/06 21:53:15;;;;;;;17.10;8.43;;;;;;;-4.08;100.00;96138.75;10610152;28;20188;-64
2021/12/06 21:58:16;;;;;;;16.30;8.93;;;;;;;-4.00;100.00;96136.59;10611136;28;20244;-65
2021/12/06 22:03:25;;;;;;;14.90;8.50;;;;;;;-3.92;100.00;96135.38;10612148;28;20353;-63
2021/12/06 22:08:26;;;;;;;20.77;9.90;;;;;;;-3.81;100.00;96125.41;10611944;28;20408;-65
2021/12/06 22:13:27;;;;;;;16.70;9.00;;;;;;;-3.73;100.00;96120.69;10611764;28;20185;-65
2021/12/06 22:18:30;;;;;;;17.97;8.93;;;;;;;-3.71;100.00;96135.97;10611189;28;20324;-65
2021/12/06 22:23:30;;;;;;;16.87;8.80;;;;;;;-3.65;100.00;96138.19;10611760;28;20176;-65
2021/12/06 22:28:30;;;;;;;18.53;9.23;;;;;;;-3.56;100.00;96132.56;10610304;28;20210;-65
2021/12/06 22:33:31;;;;;;;19.00;10.07;;;;;;;-3.17;100.00;96127.88;10611376;28;20174;-62
2021/12/06 22:38:31;;;;;;;19.90;9.60;;;;;;;-3.28;100.00;96123.34;10610969;28;20162;-65
2021/12/06 22:43:32;;;;;;;18.07;8.93;;;;;;;-3.29;100.00;96127.66;10610374;28;20185;-65
2021/12/06 22:48:32;;;;;;;19.03;9.10;;;;;;;-3.19;100.00;96116.88;10610564;28;20255;-64
2021/12/06 22:53:33;;;;;;;20.50;9.33;;;;;;;-3.10;100.00;96118.94;10610460;28;20174;-62
2021/12/06 22:58:33;;;;;;;20.13;10.00;;;;;;;-3.02;100.00;96103.94;10609857;28;20178;-64